createdAt,value
2022-10-23T00:00:05.650Z,0.00
2022-10-23T00:01:05.618Z,0.00
2022-10-23T00:02:05.680Z,0.00
2022-10-23T00:03:05.581Z,0.00
2022-10-23T00:04:05.575Z,0.00
2022-10-23T00:05:05.562Z,0.00
2022-10-23T00:06:05.583Z,0.00
2022-10-23T00:07:05.561Z,0.00
2022-10-23T00:08:05.544Z,0.00
2022-10-23T00:09:05.535Z,0.00
2022-10-23T00:10:05.535Z,0.00
2022-10-23T00:11:05.545Z,0.00
2022-10-23T00:12:05.517Z,0.00
2022-10-23T00:13:05.505Z,0.00
2022-10-23T00:14:05.503Z,0.00
2022-10-23T00:15:05.527Z,0.00
2022-10-23T00:16:05.511Z,0.00
2022-10-23T00:17:05.482Z,0.00
2022-10-23T00:18:05.476Z,0.00
2022-10-23T00:19:05.735Z,0.00
2022-10-23T00:20:05.454Z,0.00
2022-10-23T00:21:05.480Z,0.00
2022-10-23T00:22:05.435Z,0.00
2022-10-23T00:23:05.434Z,0.00
2022-10-23T00:24:05.516Z,0.00
2022-10-23T00:25:05.415Z,0.00
2022-10-23T00:26:05.441Z,0.00
2022-10-23T00:27:05.401Z,0.00
2022-10-23T00:28:05.382Z,0.00
2022-10-23T00:29:05.389Z,0.00
2022-10-23T00:30:05.374Z,0.00
2022-10-23T00:31:05.395Z,0.00
2022-10-23T00:32:05.356Z,0.00
2022-10-23T00:33:05.348Z,0.00
2022-10-23T00:34:05.354Z,0.00
2022-10-23T00:35:05.341Z,0.00
2022-10-23T00:36:05.356Z,0.00
2022-10-23T00:37:05.317Z,0.00
2022-10-23T00:38:05.343Z,0.00
2022-10-23T00:39:05.311Z,0.00
2022-10-23T00:40:05.310Z,0.00
2022-10-23T00:41:05.328Z,0.00
2022-10-23T00:42:05.281Z,0.00
2022-10-23T00:43:05.282Z,0.00
2022-10-23T00:44:05.262Z,0.00
2022-10-23T00:45:05.259Z,0.00
2022-10-23T00:46:05.284Z,0.00
2022-10-23T00:47:05.238Z,0.00
2022-10-23T00:48:05.232Z,0.00
2022-10-23T00:49:05.302Z,0.00
2022-10-23T00:50:05.224Z,0.00
2022-10-23T00:51:05.232Z,0.00
2022-10-23T00:52:05.245Z,0.00
2022-10-23T00:53:05.184Z,0.00
2022-10-23T00:54:23.436Z,0.00
2022-10-23T00:55:07.176Z,0.00
2022-10-23T00:56:05.200Z,0.00
2022-10-23T00:57:05.167Z,0.00
2022-10-23T00:58:05.154Z,0.00
2022-10-23T00:59:05.154Z,0.00
2022-10-23T01:00:05.141Z,0.00
2022-10-23T01:01:05.247Z,0.00
2022-10-23T01:02:05.247Z,0.00
2022-10-23T01:03:05.130Z,0.00
2022-10-23T01:04:05.108Z,0.00
2022-10-23T01:05:05.118Z,0.00
2022-10-23T01:06:05.122Z,0.00
2022-10-23T01:07:05.091Z,0.00
2022-10-23T01:08:05.077Z,0.00
2022-10-23T01:09:05.075Z,0.00
2022-10-23T01:10:05.065Z,0.00
2022-10-23T01:11:05.084Z,0.00
2022-10-23T01:12:05.068Z,0.00
2022-10-23T01:13:05.050Z,0.00
2022-10-23T01:14:05.039Z,0.00
2022-10-23T01:15:05.028Z,0.00
2022-10-23T01:16:05.049Z,0.00
2022-10-23T01:17:05.007Z,0.00
2022-10-23T01:18:04.998Z,0.00
2022-10-23T01:19:04.994Z,0.00
2022-10-23T01:20:04.982Z,0.00
2022-10-23T01:21:05.001Z,0.00
2022-10-23T01:22:05.002Z,0.00
2022-10-23T01:23:04.963Z,0.00
2022-10-23T01:24:04.951Z,0.00
2022-10-23T01:25:04.957Z,0.00
2022-10-23T01:26:04.975Z,0.00
2022-10-23T01:27:04.949Z,0.00
2022-10-23T01:28:04.919Z,0.00
2022-10-23T01:29:04.918Z,0.00
2022-10-23T01:30:04.911Z,0.00
2022-10-23T01:31:04.933Z,0.00
2022-10-23T01:32:04.889Z,0.00
2022-10-23T01:33:04.888Z,0.00
2022-10-23T01:34:04.872Z,0.00
2022-10-23T01:35:04.898Z,0.00
2022-10-23T01:36:04.862Z,0.00
2022-10-23T01:37:04.875Z,0.00
2022-10-23T01:38:04.868Z,0.00
2022-10-23T01:40:04.827Z,0.00
2022-10-23T01:41:04.825Z,0.00
2022-10-23T01:42:04.844Z,0.00
2022-10-23T01:43:04.801Z,0.00
2022-10-23T01:44:04.872Z,0.00
2022-10-23T01:45:04.792Z,0.00
2022-10-23T01:46:04.787Z,0.00
2022-10-23T01:47:04.800Z,0.00
2022-10-23T01:48:04.821Z,0.00
2022-10-23T01:49:04.764Z,0.00
2022-10-23T01:50:04.752Z,0.00
2022-10-23T01:51:04.753Z,0.00
2022-10-23T01:52:04.784Z,0.00
2022-10-23T01:53:04.721Z,0.00
2022-10-23T01:54:04.731Z,0.00
2022-10-23T01:55:04.712Z,0.00
2022-10-23T01:56:04.730Z,0.00
2022-10-23T01:57:04.725Z,0.00
2022-10-23T01:58:04.684Z,0.00
2022-10-23T01:59:04.671Z,0.00
2022-10-23T02:00:04.668Z,0.00
2022-10-23T02:01:04.715Z,0.00
2022-10-23T02:02:04.807Z,0.00
2022-10-23T02:03:04.657Z,0.00
2022-10-23T02:04:04.664Z,0.00
2022-10-23T02:05:04.636Z,0.00
2022-10-23T02:06:04.621Z,0.00
2022-10-23T02:07:04.651Z,0.00
2022-10-23T02:08:04.607Z,0.00
2022-10-23T02:09:04.610Z,0.00
2022-10-23T02:10:04.595Z,0.00
2022-10-23T02:11:04.613Z,0.00
2022-10-23T02:12:04.608Z,0.00
2022-10-23T02:13:04.586Z,0.00
2022-10-23T02:14:04.567Z,0.00
2022-10-23T02:15:04.568Z,0.00
2022-10-23T02:16:04.547Z,0.00
2022-10-23T02:17:04.580Z,0.00
2022-10-23T02:18:04.551Z,0.00
2022-10-23T02:19:04.548Z,0.00
2022-10-23T02:20:04.528Z,0.00
2022-10-23T02:21:04.532Z,0.00
2022-10-23T02:22:04.539Z,0.00
2022-10-23T02:23:04.497Z,0.00
2022-10-23T02:24:04.489Z,0.00
2022-10-23T02:25:04.481Z,0.00
2022-10-23T02:26:04.475Z,0.00
2022-10-23T02:27:04.459Z,0.00
2022-10-23T02:28:04.490Z,0.00
2022-10-23T02:30:04.439Z,0.00
2022-10-23T02:31:04.432Z,0.00
2022-10-23T02:32:04.428Z,0.00
2022-10-23T02:33:04.441Z,0.00
2022-10-23T02:34:04.405Z,0.00
2022-10-23T02:35:04.412Z,0.00
2022-10-23T02:36:04.393Z,0.00
2022-10-23T02:37:04.383Z,0.00
2022-10-23T02:38:04.652Z,0.00
2022-10-23T02:39:04.380Z,0.00
2022-10-23T02:40:04.375Z,0.00
2022-10-23T02:41:04.360Z,0.00
2022-10-23T02:42:04.344Z,0.00
2022-10-23T02:43:04.365Z,0.00
2022-10-23T02:44:04.326Z,0.00
2022-10-23T02:45:04.318Z,0.00
2022-10-23T02:46:04.315Z,0.00
2022-10-23T02:47:04.313Z,0.00
2022-10-23T02:48:04.315Z,0.00
2022-10-23T02:49:04.290Z,0.00
2022-10-23T02:50:04.281Z,0.00
2022-10-23T02:51:04.265Z,0.00
2022-10-23T02:52:04.258Z,0.00
2022-10-23T02:53:04.283Z,0.00
2022-10-23T02:54:04.249Z,0.00
2022-10-23T02:55:04.241Z,0.00
2022-10-23T02:56:04.232Z,0.00
2022-10-23T02:57:04.256Z,0.00
2022-10-23T02:58:04.255Z,0.00
2022-10-23T02:59:04.209Z,0.00
2022-10-23T03:00:04.210Z,0.00
2022-10-23T03:01:04.234Z,0.00
2022-10-23T03:02:04.312Z,0.00
2022-10-23T03:03:04.207Z,0.00
2022-10-23T03:04:04.177Z,0.00
2022-10-23T03:05:04.161Z,0.00
2022-10-23T03:06:04.156Z,0.00
2022-10-23T03:07:04.146Z,0.00
2022-10-23T03:08:04.170Z,0.00
2022-10-23T03:09:04.156Z,0.00
2022-10-23T03:10:04.121Z,0.00
2022-10-23T03:11:04.115Z,0.00
2022-10-23T03:12:04.103Z,0.00
2022-10-23T03:13:04.133Z,0.00
2022-10-23T03:14:04.092Z,0.00
2022-10-23T03:15:04.083Z,0.00
2022-10-23T03:16:04.080Z,0.00
2022-10-23T03:17:04.067Z,0.00
2022-10-23T03:18:04.086Z,0.00
2022-10-23T03:19:04.085Z,0.00
2022-10-23T03:20:04.069Z,0.00
2022-10-23T03:21:04.046Z,0.00
2022-10-23T03:22:04.041Z,0.00
2022-10-23T03:23:04.044Z,0.00
2022-10-23T03:24:04.016Z,0.00
2022-10-23T03:25:04.004Z,0.00
2022-10-23T03:26:03.999Z,0.00
2022-10-23T03:27:03.994Z,0.00
2022-10-23T03:28:04.017Z,0.00
2022-10-23T03:29:03.974Z,0.00
2022-10-23T03:30:03.966Z,0.00
2022-10-23T03:31:03.959Z,0.00
2022-10-23T03:32:03.956Z,0.00
2022-10-23T03:33:03.979Z,0.00
2022-10-23T03:34:06.291Z,0.00
2022-10-23T03:35:03.929Z,0.00
2022-10-23T03:36:03.917Z,0.00
2022-10-23T03:37:03.908Z,0.00
2022-10-23T03:38:03.943Z,0.00
2022-10-23T03:39:03.907Z,0.00
2022-10-23T03:40:03.964Z,0.00
2022-10-23T03:41:03.886Z,0.00
2022-10-23T03:42:03.873Z,0.00
2022-10-23T03:43:03.917Z,0.00
2022-10-23T03:45:03.872Z,0.00
2022-10-23T03:46:03.848Z,0.00
2022-10-23T03:47:03.872Z,0.00
2022-10-23T03:48:03.900Z,0.00
2022-10-23T03:49:03.825Z,0.00
2022-10-23T03:50:03.813Z,0.00
2022-10-23T03:51:03.813Z,0.00
2022-10-23T03:52:03.804Z,0.00
2022-10-23T03:53:03.840Z,0.00
2022-10-23T03:54:03.793Z,0.00
2022-10-23T03:55:03.793Z,0.00
2022-10-23T03:56:03.769Z,0.00
2022-10-23T03:57:04.780Z,0.00
2022-10-23T03:58:03.753Z,0.00
2022-10-23T03:59:03.777Z,0.00
2022-10-23T04:00:03.739Z,0.00
2022-10-23T04:01:03.838Z,0.00
2022-10-23T04:02:03.857Z,0.00
2022-10-23T04:03:03.715Z,0.00
2022-10-23T04:04:03.735Z,0.00
2022-10-23T04:05:03.711Z,0.00
2022-10-23T04:06:03.706Z,0.00
2022-10-23T04:07:03.691Z,0.00
2022-10-23T04:08:03.681Z,0.00
2022-10-23T04:09:03.721Z,0.00
2022-10-23T04:10:03.668Z,0.00
2022-10-23T04:11:03.663Z,0.00
2022-10-23T04:12:03.652Z,0.00
2022-10-23T04:13:03.653Z,0.00
2022-10-23T04:14:03.670Z,0.00
2022-10-23T04:15:03.639Z,0.00
2022-10-23T04:16:03.615Z,0.00
2022-10-23T04:17:03.623Z,0.00
2022-10-23T04:18:03.608Z,0.00
2022-10-23T04:19:03.622Z,0.00
2022-10-23T04:20:03.598Z,0.00
2022-10-23T04:21:03.618Z,0.00
2022-10-23T04:22:03.572Z,0.00
2022-10-23T04:23:03.579Z,0.00
2022-10-23T04:24:03.594Z,0.00
2022-10-23T04:25:03.564Z,0.00
2022-10-23T04:26:03.566Z,0.00
2022-10-23T04:27:03.557Z,0.00
2022-10-23T04:28:03.538Z,0.00
2022-10-23T04:29:03.565Z,0.00
2022-10-23T04:30:03.521Z,0.00
2022-10-23T04:31:03.509Z,0.00
2022-10-23T04:32:03.502Z,0.00
2022-10-23T04:33:03.510Z,0.00
2022-10-23T04:34:03.548Z,0.00
2022-10-23T04:35:04.303Z,0.00
2022-10-23T04:36:03.477Z,0.00
2022-10-23T04:37:03.464Z,0.00
2022-10-23T04:38:03.460Z,0.00
2022-10-23T04:39:03.481Z,0.00
2022-10-23T04:40:03.448Z,0.00
2022-10-23T04:41:03.485Z,0.00
2022-10-23T04:42:03.446Z,0.00
2022-10-23T04:43:03.415Z,0.00
2022-10-23T04:44:03.440Z,0.00
2022-10-23T04:45:03.408Z,0.00
2022-10-23T04:46:03.395Z,0.00
2022-10-23T04:47:03.390Z,0.00
2022-10-23T04:48:03.386Z,0.00
2022-10-23T04:49:03.405Z,0.00
2022-10-23T04:50:03.358Z,0.00
2022-10-23T04:51:03.376Z,0.00
2022-10-23T04:52:03.351Z,0.00
2022-10-23T04:53:03.338Z,0.00
2022-10-23T04:54:03.363Z,0.00
2022-10-23T04:55:03.337Z,0.00
2022-10-23T04:56:03.321Z,0.00
2022-10-23T04:57:03.331Z,0.00
2022-10-23T04:58:03.315Z,0.00
2022-10-23T04:59:03.322Z,0.00
2022-10-23T05:00:03.309Z,0.00
2022-10-23T05:01:03.363Z,0.00
2022-10-23T05:02:03.270Z,0.00
2022-10-23T05:03:03.266Z,0.00
2022-10-23T05:04:03.280Z,0.00
2022-10-23T05:05:03.248Z,0.00
2022-10-23T05:06:03.250Z,0.00
2022-10-23T05:07:03.237Z,0.00
2022-10-23T05:08:03.234Z,0.00
2022-10-23T05:09:03.252Z,0.00
2022-10-23T05:10:03.214Z,0.00
2022-10-23T05:11:03.199Z,0.00
2022-10-23T05:12:03.196Z,0.00
2022-10-23T05:13:03.196Z,0.00
2022-10-23T05:14:03.205Z,0.00
2022-10-23T05:15:03.189Z,0.00
2022-10-23T05:16:03.170Z,0.00
2022-10-23T05:17:03.153Z,0.00
2022-10-23T05:18:03.149Z,0.00
2022-10-23T05:19:03.170Z,0.00
2022-10-23T05:20:03.144Z,0.00
2022-10-23T05:21:03.133Z,0.00
2022-10-23T05:22:03.127Z,0.00
2022-10-23T05:23:03.110Z,0.00
2022-10-23T05:24:03.147Z,0.00
2022-10-23T05:25:03.096Z,0.00
2022-10-23T05:26:03.093Z,0.00
2022-10-23T05:27:03.096Z,0.00
2022-10-23T05:28:03.069Z,0.00
2022-10-23T05:29:03.085Z,0.00
2022-10-23T05:30:03.054Z,0.00
2022-10-23T05:31:03.045Z,0.00
2022-10-23T05:32:03.032Z,0.00
2022-10-23T05:33:04.029Z,0.00
2022-10-23T05:34:03.054Z,0.00
2022-10-23T05:35:03.024Z,0.00
2022-10-23T05:36:03.006Z,4.00
2022-10-23T05:37:03.015Z,0.00
2022-10-23T05:38:03.011Z,0.00
2022-10-23T05:39:03.013Z,4.00
2022-10-23T05:40:02.985Z,0.00
2022-10-23T05:41:02.971Z,0.00
2022-10-23T05:42:02.962Z,0.00
2022-10-23T05:43:02.957Z,4.00
2022-10-23T05:44:02.972Z,4.00
2022-10-23T05:45:02.941Z,4.00
2022-10-23T05:46:02.920Z,4.00
2022-10-23T05:47:03.949Z,4.00
2022-10-23T05:48:11.041Z,8.00
2022-10-23T05:49:04.938Z,8.00
2022-10-23T05:50:02.901Z,8.00
2022-10-23T05:51:02.893Z,16.00
2022-10-23T05:52:02.886Z,16.00
2022-10-23T05:53:02.880Z,16.00
2022-10-23T05:54:02.943Z,20.00
2022-10-23T05:55:02.861Z,16.00
2022-10-23T05:56:02.851Z,20.00
2022-10-23T05:57:02.867Z,24.00
2022-10-23T05:58:02.863Z,24.00
2022-10-23T05:59:02.839Z,28.00
2022-10-23T06:00:02.909Z,32.00
2022-10-23T06:01:02.875Z,36.00
2022-10-23T06:02:02.971Z,40.00
2022-10-23T06:03:02.800Z,44.00
2022-10-23T06:04:02.849Z,48.00
2022-10-23T06:05:02.817Z,56.00
2022-10-23T06:06:02.778Z,60.00
2022-10-23T06:07:02.780Z,72.00
2022-10-23T06:08:02.823Z,80.00
2022-10-23T06:09:02.750Z,88.00
2022-10-23T06:10:02.778Z,88.00
2022-10-23T06:11:02.728Z,96.00
2022-10-23T06:12:03.724Z,100.00
2022-10-23T06:13:02.717Z,96.00
2022-10-23T06:14:02.720Z,100.00
2022-10-23T06:15:02.732Z,104.00
2022-10-23T06:16:02.697Z,112.00
2022-10-23T06:17:02.693Z,116.00
2022-10-23T06:18:02.686Z,120.00
2022-10-23T06:19:02.680Z,124.00
2022-10-23T06:20:02.695Z,128.00
2022-10-23T06:21:02.666Z,136.00
2022-10-23T06:22:02.671Z,144.00
2022-10-23T06:23:02.658Z,156.00
2022-10-23T06:24:02.642Z,164.00
2022-10-23T06:25:02.662Z,168.00
2022-10-23T06:26:02.627Z,172.00
2022-10-23T06:27:02.616Z,172.00
2022-10-23T06:28:02.613Z,184.00
2022-10-23T06:29:02.603Z,200.00
2022-10-23T06:30:02.615Z,208.00
2022-10-23T06:31:02.594Z,220.00
2022-10-23T06:32:03.659Z,228.00
2022-10-23T06:33:04.614Z,228.00
2022-10-23T06:34:02.562Z,228.00
2022-10-23T06:35:02.577Z,232.00
2022-10-23T06:36:02.552Z,244.00
2022-10-23T06:37:02.525Z,260.00
2022-10-23T06:38:03.549Z,268.00
2022-10-23T06:39:02.539Z,276.00
2022-10-23T06:40:02.536Z,284.00
2022-10-23T06:41:02.504Z,292.00
2022-10-23T06:42:02.503Z,312.00
2022-10-23T06:43:02.495Z,324.00
2022-10-23T06:44:02.486Z,340.00
2022-10-23T06:45:06.276Z,348.00
2022-10-23T06:46:02.470Z,352.00
2022-10-23T06:47:02.475Z,368.00
2022-10-23T06:48:02.452Z,404.00
2022-10-23T06:49:02.446Z,444.00
2022-10-23T06:50:02.464Z,404.00
2022-10-23T06:51:02.432Z,432.00
2022-10-23T06:52:02.424Z,468.00
2022-10-23T06:53:02.420Z,452.00
2022-10-23T06:54:02.402Z,452.00
2022-10-23T06:55:02.434Z,448.00
2022-10-23T06:56:02.389Z,468.00
2022-10-23T06:57:02.391Z,452.00
2022-10-23T06:58:02.377Z,432.00
2022-10-23T06:59:02.370Z,436.00
2022-10-23T07:00:02.406Z,440.00
2022-10-23T07:01:02.503Z,452.00
2022-10-23T07:02:02.368Z,460.00
2022-10-23T07:03:02.355Z,492.00
2022-10-23T07:04:02.335Z,524.00
2022-10-23T07:05:02.357Z,552.00
2022-10-23T07:06:02.317Z,588.00
2022-10-23T07:07:02.315Z,648.00
2022-10-23T07:08:02.337Z,692.00
2022-10-23T07:09:02.290Z,716.00
2022-10-23T07:10:02.423Z,720.00
2022-10-23T07:11:02.284Z,744.00
2022-10-23T07:12:02.264Z,828.00
2022-10-23T07:13:02.268Z,904.00
2022-10-23T07:14:02.263Z,892.00
2022-10-23T07:15:02.282Z,844.00
2022-10-23T07:16:02.233Z,856.00
2022-10-23T07:17:02.238Z,828.00
2022-10-23T07:18:02.234Z,816.00
2022-10-23T07:19:02.222Z,776.00
2022-10-23T07:20:02.261Z,580.00
2022-10-23T07:21:02.206Z,792.00
2022-10-23T07:22:02.200Z,912.00
2022-10-23T07:23:02.196Z,840.00
2022-10-23T07:24:02.184Z,780.00
2022-10-23T07:25:02.200Z,752.00
2022-10-23T07:26:02.167Z,840.00
2022-10-23T07:27:02.160Z,788.00
2022-10-23T07:28:02.153Z,924.00
2022-10-23T07:29:02.138Z,1020.00
2022-10-23T07:30:02.175Z,704.00
2022-10-23T07:31:02.134Z,616.00
2022-10-23T07:32:02.126Z,592.00
2022-10-23T07:33:02.111Z,924.00
2022-10-23T07:34:02.110Z,916.00
2022-10-23T07:35:02.192Z,656.00
2022-10-23T07:36:02.093Z,832.00
2022-10-23T07:37:02.081Z,1128.00
2022-10-23T07:38:02.082Z,660.00
2022-10-23T07:39:02.094Z,676.00
2022-10-23T07:40:02.116Z,620.00
2022-10-23T07:41:02.051Z,728.00
2022-10-23T07:42:02.046Z,608.00
2022-10-23T07:43:02.048Z,932.00
2022-10-23T07:44:02.040Z,752.00
2022-10-23T07:45:02.051Z,728.00
2022-10-23T07:46:02.019Z,724.00
2022-10-23T07:47:02.013Z,888.00
2022-10-23T07:48:02.007Z,1196.00
2022-10-23T07:49:01.993Z,932.00
2022-10-23T07:50:02.016Z,1200.00
2022-10-23T07:51:01.987Z,1324.00
2022-10-23T07:53:01.971Z,1148.00
2022-10-23T07:54:01.955Z,808.00
2022-10-23T07:55:01.998Z,596.00
2022-10-23T07:56:01.965Z,696.00
2022-10-23T07:57:01.963Z,568.00
2022-10-23T07:58:01.927Z,528.00
2022-10-23T07:59:01.928Z,528.00
2022-10-23T08:00:01.931Z,540.00
2022-10-23T08:01:01.921Z,560.00
2022-10-23T08:02:02.051Z,592.00
2022-10-23T08:03:01.889Z,616.00
2022-10-23T08:04:01.875Z,640.00
2022-10-23T08:05:02.744Z,712.00
2022-10-23T08:06:01.866Z,716.00
2022-10-23T08:07:01.883Z,732.00
2022-10-23T08:08:01.843Z,752.00
2022-10-23T08:09:05.361Z,816.00
2022-10-23T08:10:01.836Z,868.00
2022-10-23T08:11:01.822Z,884.00
2022-10-23T08:12:01.863Z,964.00
2022-10-23T08:13:01.826Z,944.00
2022-10-23T08:14:01.807Z,944.00
2022-10-23T08:15:01.797Z,1008.00
2022-10-23T08:16:01.788Z,1028.00
2022-10-23T08:18:01.771Z,980.00
2022-10-23T08:19:01.761Z,1036.00
2022-10-23T08:20:01.759Z,1052.00
2022-10-23T08:21:01.748Z,1088.00
2022-10-23T08:22:01.740Z,1168.00
2022-10-23T08:23:01.764Z,1240.00
2022-10-23T08:24:01.728Z,1312.00
2022-10-23T08:25:01.719Z,1320.00
2022-10-23T08:26:01.716Z,1328.00
2022-10-23T08:27:01.700Z,1356.00
2022-10-23T08:28:04.272Z,1336.00
2022-10-23T08:29:02.693Z,1404.00
2022-10-23T08:30:01.674Z,1328.00
2022-10-23T08:31:01.675Z,1324.00
2022-10-23T08:32:01.658Z,1396.00
2022-10-23T08:33:01.682Z,1288.00
2022-10-23T08:34:01.645Z,1224.00
2022-10-23T08:35:01.643Z,1256.00
2022-10-23T08:36:01.644Z,1324.00
2022-10-23T08:37:01.619Z,1312.00
2022-10-23T08:38:01.639Z,1260.00
2022-10-23T08:39:01.611Z,1232.00
2022-10-23T08:40:01.727Z,1180.00
2022-10-23T08:41:01.589Z,1200.00
2022-10-23T08:42:01.660Z,1200.00
2022-10-23T08:43:01.604Z,1192.00
2022-10-23T08:44:01.564Z,1188.00
2022-10-23T08:45:01.586Z,1188.00
2022-10-23T08:46:03.359Z,1196.00
2022-10-23T08:47:01.547Z,1204.00
2022-10-23T08:48:01.585Z,1216.00
2022-10-23T08:49:01.539Z,1264.00
2022-10-23T08:50:01.522Z,1296.00
2022-10-23T08:51:01.512Z,1324.00
2022-10-23T08:52:01.503Z,1360.00
2022-10-23T08:53:01.528Z,1408.00
2022-10-23T08:54:01.483Z,1504.00
2022-10-23T08:55:01.477Z,1640.00
2022-10-23T08:56:01.467Z,1924.00
2022-10-23T08:57:01.456Z,1724.00
2022-10-23T08:58:01.481Z,1476.00
2022-10-23T08:59:01.450Z,1488.00
2022-10-23T09:00:01.436Z,1652.00
2022-10-23T09:01:01.543Z,1708.00
2022-10-23T09:02:01.605Z,1792.00
2022-10-23T09:03:01.433Z,1824.00
2022-10-23T09:04:01.401Z,1944.00
2022-10-23T09:05:01.405Z,1980.00
2022-10-23T09:06:01.393Z,2128.00
2022-10-23T09:07:01.419Z,2044.00
2022-10-23T09:08:01.396Z,2120.00
2022-10-23T09:09:01.371Z,1800.00
2022-10-23T09:10:01.366Z,2140.00
2022-10-23T09:11:01.352Z,1860.00
2022-10-23T09:12:01.337Z,1400.00
2022-10-23T09:13:01.366Z,1484.00
2022-10-23T09:14:01.319Z,1428.00
2022-10-23T09:15:01.314Z,1436.00
2022-10-23T09:16:01.337Z,1336.00
2022-10-23T09:17:01.374Z,1348.00
2022-10-23T09:18:01.360Z,1484.00
2022-10-23T09:19:01.285Z,1756.00
2022-10-23T09:20:01.278Z,1372.00
2022-10-23T09:21:01.270Z,1256.00
2022-10-23T09:22:01.264Z,1224.00
2022-10-23T09:23:01.286Z,1232.00
2022-10-23T09:24:01.250Z,1260.00
2022-10-23T09:25:01.246Z,1284.00
2022-10-23T09:26:01.248Z,1708.00
2022-10-23T09:27:01.286Z,1380.00
2022-10-23T09:28:01.510Z,1520.00
2022-10-23T09:29:01.220Z,1748.00
2022-10-23T09:30:01.267Z,1824.00
2022-10-23T09:31:01.270Z,1892.00
2022-10-23T09:32:01.185Z,1944.00
2022-10-23T09:33:01.218Z,1896.00
2022-10-23T09:34:01.175Z,1884.00
2022-10-23T09:35:01.174Z,1708.00
2022-10-23T09:36:01.157Z,1532.00
2022-10-23T09:37:01.161Z,1804.00
2022-10-23T09:38:01.145Z,1728.00
2022-10-23T09:39:01.158Z,1932.00
2022-10-23T09:40:01.192Z,1924.00
2022-10-23T09:41:01.133Z,1932.00
2022-10-23T09:42:01.124Z,1936.00
2022-10-23T09:43:01.122Z,1840.00
2022-10-23T09:44:01.126Z,1924.00
2022-10-23T09:45:01.100Z,1924.00
2022-10-23T09:46:01.086Z,1916.00
2022-10-23T09:47:01.098Z,1932.00
2022-10-23T09:48:01.073Z,1932.00
2022-10-23T09:49:03.568Z,1728.00
2022-10-23T09:50:01.053Z,1860.00
2022-10-23T09:51:01.039Z,1712.00
2022-10-23T09:52:01.034Z,1732.00
2022-10-23T09:53:01.028Z,1756.00
2022-10-23T09:54:01.046Z,1788.00
2022-10-23T09:55:01.015Z,1860.00
2022-10-23T09:56:00.999Z,1804.00
2022-10-23T09:57:00.996Z,1936.00
2022-10-23T09:58:01.043Z,1908.00
2022-10-23T09:59:01.017Z,1880.00
2022-10-23T10:00:00.972Z,1876.00
2022-10-23T10:01:01.100Z,1872.00
2022-10-23T10:02:01.146Z,1764.00
2022-10-23T10:03:00.969Z,1508.00
2022-10-23T10:04:00.967Z,1616.00
2022-10-23T10:05:00.930Z,1716.00
2022-10-23T10:06:00.930Z,1760.00
2022-10-23T10:07:00.993Z,1664.00
2022-10-23T10:08:00.946Z,1732.00
2022-10-23T10:09:00.939Z,1720.00
2022-10-23T10:10:00.894Z,1840.00
2022-10-23T10:11:00.913Z,1588.00
2022-10-23T10:12:00.878Z,1616.00
2022-10-23T10:13:00.885Z,1572.00
2022-10-23T10:14:00.900Z,1836.00
2022-10-23T10:15:00.865Z,1756.00
2022-10-23T10:16:01.868Z,1520.00
2022-10-23T10:17:00.837Z,1340.00
2022-10-23T10:18:00.829Z,1336.00
2022-10-23T10:19:00.867Z,1356.00
2022-10-23T10:20:03.910Z,1368.00
2022-10-23T10:21:02.807Z,1388.00
2022-10-23T10:22:00.803Z,1380.00
2022-10-23T10:23:00.898Z,1380.00
2022-10-23T10:24:00.852Z,1380.00
2022-10-23T10:25:00.781Z,1356.00
2022-10-23T10:26:00.801Z,1336.00
2022-10-23T10:27:00.762Z,1316.00
2022-10-23T10:28:00.869Z,1312.00
2022-10-23T10:29:00.870Z,1300.00
2022-10-23T10:30:00.739Z,1308.00
2022-10-23T10:31:00.737Z,1312.00
2022-10-23T10:32:00.734Z,1320.00
2022-10-23T10:33:00.770Z,1332.00
2022-10-23T10:34:00.750Z,1344.00
2022-10-23T10:35:00.734Z,1348.00
2022-10-23T10:36:00.694Z,1364.00
2022-10-23T10:37:00.682Z,1364.00
2022-10-23T10:38:00.689Z,1368.00
2022-10-23T10:39:00.807Z,1376.00
2022-10-23T10:40:00.672Z,1376.00
2022-10-23T10:41:00.646Z,1376.00
2022-10-23T10:42:00.650Z,1372.00
2022-10-23T10:43:00.631Z,1372.00
2022-10-23T10:44:00.708Z,1380.00
2022-10-23T10:45:00.610Z,1396.00
2022-10-23T10:46:00.649Z,1412.00
2022-10-23T10:47:00.593Z,1444.00
2022-10-23T10:48:00.590Z,1436.00
2022-10-23T10:49:00.645Z,1432.00
2022-10-23T10:50:00.570Z,1432.00
2022-10-23T10:51:00.579Z,1416.00
2022-10-23T10:52:00.563Z,1408.00
2022-10-23T10:53:00.605Z,1404.00
2022-10-23T10:54:00.602Z,1392.00
2022-10-23T10:55:00.538Z,1428.00
2022-10-23T10:56:00.572Z,1384.00
2022-10-23T10:57:00.517Z,1352.00
2022-10-23T10:58:00.522Z,1336.00
2022-10-23T10:59:00.533Z,1328.00
2022-10-23T11:00:01.536Z,1328.00
2022-10-23T11:01:00.592Z,1336.00
2022-10-23T11:02:00.612Z,1352.00
2022-10-23T11:03:00.469Z,1392.00
2022-10-23T11:04:00.513Z,1440.00
2022-10-23T11:05:00.461Z,1464.00
2022-10-23T11:07:00.439Z,1408.00
2022-10-23T11:08:00.544Z,1396.00
2022-10-23T11:09:19.269Z,1388.00
2022-10-23T11:10:02.408Z,1376.00
2022-10-23T11:11:00.406Z,1364.00
2022-10-23T11:12:00.433Z,1348.00
2022-10-23T11:13:00.388Z,1336.00
2022-10-23T11:14:00.409Z,1328.00
2022-10-23T11:15:00.411Z,1328.00
2022-10-23T11:16:00.382Z,1324.00
2022-10-23T11:17:00.366Z,1328.00
2022-10-23T11:18:00.336Z,1328.00
2022-10-23T11:19:00.340Z,1340.00
2022-10-23T11:20:00.371Z,1352.00
2022-10-23T11:21:00.346Z,1360.00
2022-10-23T11:22:00.319Z,1396.00
2022-10-23T11:23:00.332Z,1436.00
2022-10-23T11:24:00.348Z,1400.00
2022-10-23T11:25:00.333Z,1384.00
2022-10-23T11:26:00.289Z,1368.00
2022-10-23T11:27:00.288Z,1352.00
2022-10-23T11:28:03.565Z,1344.00
2022-10-23T11:29:02.266Z,1328.00
2022-10-23T11:30:00.274Z,1320.00
2022-10-23T11:31:00.439Z,1304.00
2022-10-23T11:32:00.237Z,1300.00
2022-10-23T11:33:00.239Z,1292.00
2022-10-23T11:34:00.210Z,1284.00
2022-10-23T11:35:00.237Z,1272.00
2022-10-23T11:36:00.215Z,1256.00
2022-10-23T11:37:00.197Z,1224.00
2022-10-23T11:38:00.183Z,1200.00
2022-10-23T11:39:00.178Z,1172.00
2022-10-23T11:40:00.201Z,1152.00
2022-10-23T11:41:00.159Z,1128.00
2022-10-23T11:42:00.156Z,1104.00
2022-10-23T11:43:00.144Z,1080.00
2022-10-23T11:44:00.139Z,1056.00
2022-10-23T11:45:00.177Z,1036.00
2022-10-23T11:46:00.129Z,1012.00
2022-10-23T11:47:00.143Z,992.00
2022-10-23T11:48:00.117Z,968.00
2022-10-23T11:49:00.162Z,944.00
2022-10-23T11:50:00.140Z,928.00
2022-10-23T11:51:02.798Z,900.00
2022-10-23T11:52:01.078Z,884.00
2022-10-23T11:53:13.639Z,864.00
2022-10-23T11:54:02.090Z,840.00
2022-10-23T11:55:00.089Z,820.00
2022-10-23T11:56:00.048Z,808.00
2022-10-23T11:57:00.036Z,800.00
2022-10-23T11:58:00.160Z,796.00
2022-10-23T11:59:00.018Z,792.00
2022-10-23T12:00:00.025Z,784.00
2022-10-23T12:01:00.082Z,784.00
2022-10-23T12:02:00.056Z,788.00
2022-10-23T12:03:00.074Z,796.00
2022-10-23T12:03:59.986Z,808.00
2022-10-23T12:04:59.975Z,812.00
2022-10-23T12:06:00.012Z,816.00
2022-10-23T12:06:59.967Z,812.00
2022-10-23T12:07:59.951Z,808.00
2022-10-23T12:08:59.942Z,808.00
2022-10-23T12:09:59.946Z,808.00
2022-10-23T12:10:59.954Z,808.00
2022-10-23T12:11:59.919Z,812.00
2022-10-23T12:12:59.912Z,812.00
2022-10-23T12:13:59.972Z,812.00
2022-10-23T12:14:59.931Z,824.00
2022-10-23T12:16:00.993Z,860.00
2022-10-23T12:17:00.883Z,872.00
2022-10-23T12:17:59.873Z,872.00
2022-10-23T12:18:59.870Z,884.00
2022-10-23T12:19:59.896Z,892.00
2022-10-23T12:20:59.858Z,900.00
2022-10-23T12:21:59.843Z,892.00
2022-10-23T12:22:59.837Z,884.00
2022-10-23T12:23:59.832Z,868.00
2022-10-23T12:24:59.888Z,852.00
2022-10-23T12:25:59.821Z,832.00
2022-10-23T12:26:59.805Z,812.00
2022-10-23T12:27:59.808Z,792.00
2022-10-23T12:28:59.779Z,780.00
2022-10-23T12:30:00.819Z,764.00
2022-10-23T12:30:59.782Z,748.00
2022-10-23T12:31:59.771Z,732.00
2022-10-23T12:32:59.767Z,720.00
2022-10-23T12:33:59.762Z,708.00
2022-10-23T12:34:59.780Z,692.00
2022-10-23T12:35:59.736Z,676.00
2022-10-23T12:36:59.779Z,664.00
2022-10-23T12:37:59.728Z,648.00
2022-10-23T12:38:59.726Z,628.00
2022-10-23T12:39:59.709Z,608.00
2022-10-23T12:40:59.732Z,588.00
2022-10-23T12:41:59.697Z,572.00
2022-10-23T12:42:59.687Z,556.00
2022-10-23T12:43:59.681Z,548.00
2022-10-23T12:44:59.675Z,544.00
2022-10-23T12:45:59.691Z,548.00
2022-10-23T12:46:59.651Z,552.00
2022-10-23T12:47:59.644Z,560.00
2022-10-23T12:48:59.644Z,568.00
2022-10-23T12:49:59.634Z,572.00